sensor_id;sensor_type;location;lat;lon;timestamp;temperature;humidity
13464;DHT22;6804;48.774;9.174;2023-09-07T00:00:21;20.20;99.90
13464;DHT22;6804;48.774;9.174;2023-09-07T00:02:49;20.10;99.90
13464;DHT22;6804;48.774;9.174;2023-09-07T00:05:19;20.00;99.90
13464;DHT22;6804;48.774;9.174;2023-09-07T00:07:47;19.90;99.90
13464;DHT22;6804;48.774;9.174;2023-09-07T00:10:14;19.90;99.90
13464;DHT22;6804;48.774;9.174;2023-09-07T00:12:43;19.90;99.90
13464;DHT22;6804;48.774;9.174;2023-09-07T00:15:13;19.80;99.90
13464;DHT22;6804;48.774;9.174;2023-09-07T00:17:40;19.80;99.90
13464;DHT22;6804;48.774;9.174;2023-09-07T00:20:12;19.90;99.90
13464;DHT22;6804;48.774;9.174;2023-09-07T00:22:43;19.90;99.90
13464;DHT22;6804;48.774;9.174;2023-09-07T00:25:11;19.90;99.90
13464;DHT22;6804;48.774;9.174;2023-09-07T00:27:42;19.90;99.90
13464;DHT22;6804;48.774;9.174;2023-09-07T00:30:14;19.80;99.90
13464;DHT22;6804;48.774;9.174;2023-09-07T00:32:41;19.70;99.90
13464;DHT22;6804;48.774;9.174;2023-09-07T00:35:09;19.60;99.90
13464;DHT22;6804;48.774;9.174;2023-09-07T00:37:40;19.60;99.90
13464;DHT22;6804;48.774;9.174;2023-09-07T00:40:10;19.50;99.90
13464;DHT22;6804;48.774;9.174;2023-09-07T00:42:38;19.50;99.90
13464;DHT22;6804;48.774;9.174;2023-09-07T00:45:11;19.40;99.90
13464;DHT22;6804;48.774;9.174;2023-09-07T00:47:41;19.40;99.90
13464;DHT22;6804;48.774;9.174;2023-09-07T00:50:09;19.30;99.90
13464;DHT22;6804;48.774;9.174;2023-09-07T01:02:47;19.40;99.90
13464;DHT22;6804;48.774;9.174;2023-09-07T01:05:35;19.30;99.90
13464;DHT22;6804;48.774;9.174;2023-09-07T01:11:36;19.20;99.90
13464;DHT22;6804;48.774;9.174;2023-09-07T01:17:53;19.20;99.90
13464;DHT22;6804;48.774;9.174;2023-09-07T01:53:24;19.00;99.90
13464;DHT22;6804;48.774;9.174;2023-09-07T01:55:54;18.80;99.90
13464;DHT22;6804;48.774;9.174;2023-09-07T01:58:25;18.70;99.90
13464;DHT22;6804;48.774;9.174;2023-09-07T02:00:57;18.70;99.90
13464;DHT22;6804;48.774;9.174;2023-09-07T02:03:31;18.70;99.90
13464;DHT22;6804;48.774;9.174;2023-09-07T02:05:58;18.70;99.90
13464;DHT22;6804;48.774;9.174;2023-09-07T02:08:27;18.60;99.90
13464;DHT22;6804;48.774;9.174;2023-09-07T02:10:55;18.60;99.90
13464;DHT22;6804;48.774;9.174;2023-09-07T02:13:22;18.60;99.90
13464;DHT22;6804;48.774;9.174;2023-09-07T02:15:50;18.60;99.90
13464;DHT22;6804;48.774;9.174;2023-09-07T02:18:17;18.60;99.90
13464;DHT22;6804;48.774;9.174;2023-09-07T02:20:48;18.60;99.90
13464;DHT22;6804;48.774;9.174;2023-09-07T02:23:18;18.60;99.90
13464;DHT22;6804;48.774;9.174;2023-09-07T02:25:47;18.50;99.90
13464;DHT22;6804;48.774;9.174;2023-09-07T02:28:17;18.50;99.90
13464;DHT22;6804;48.774;9.174;2023-09-07T02:30:48;18.40;99.90
13464;DHT22;6804;48.774;9.174;2023-09-07T02:33:20;18.40;99.90
13464;DHT22;6804;48.774;9.174;2023-09-07T02:35:51;18.40;99.90
13464;DHT22;6804;48.774;9.174;2023-09-07T02:38:18;18.30;99.90
13464;DHT22;6804;48.774;9.174;2023-09-07T02:40:51;18.30;99.90
13464;DHT22;6804;48.774;9.174;2023-09-07T02:43:19;18.30;99.90
13464;DHT22;6804;48.774;9.174;2023-09-07T02:45:48;18.30;99.90
13464;DHT22;6804;48.774;9.174;2023-09-07T02:48:16;18.30;99.90
13464;DHT22;6804;48.774;9.174;2023-09-07T02:50:52;18.30;99.90
13464;DHT22;6804;48.774;9.174;2023-09-07T02:53:19;18.30;99.90
13464;DHT22;6804;48.774;9.174;2023-09-07T02:55:50;18.30;99.90
13464;DHT22;6804;48.774;9.174;2023-09-07T02:58:21;18.30;99.90
13464;DHT22;6804;48.774;9.174;2023-09-07T03:00:49;18.30;99.90
13464;DHT22;6804;48.774;9.174;2023-09-07T03:03:16;18.30;99.90
13464;DHT22;6804;48.774;9.174;2023-09-07T03:22:22;17.90;99.90
13464;DHT22;6804;48.774;9.174;2023-09-07T03:24:57;17.80;99.90
13464;DHT22;6804;48.774;9.174;2023-09-07T03:33:23;17.60;99.90
13464;DHT22;6804;48.774;9.174;2023-09-07T03:42:22;17.70;99.90
13464;DHT22;6804;48.774;9.174;2023-09-07T03:51:50;17.80;99.90
13464;DHT22;6804;48.774;9.174;2023-09-07T03:54:42;17.80;99.90
13464;DHT22;6804;48.774;9.174;2023-09-07T03:57:10;17.80;99.90
13464;DHT22;6804;48.774;9.174;2023-09-07T03:59:41;17.80;99.90
13464;DHT22;6804;48.774;9.174;2023-09-07T04:02:09;17.80;99.90
13464;DHT22;6804;48.774;9.174;2023-09-07T04:04:36;17.80;99.90
13464;DHT22;6804;48.774;9.174;2023-09-07T04:07:04;17.70;99.90
13464;DHT22;6804;48.774;9.174;2023-09-07T04:09:31;17.70;99.90
13464;DHT22;6804;48.774;9.174;2023-09-07T04:11:59;17.60;99.90
13464;DHT22;6804;48.774;9.174;2023-09-07T04:14:26;17.50;99.90
13464;DHT22;6804;48.774;9.174;2023-09-07T04:16:58;17.40;99.90
13464;DHT22;6804;48.774;9.174;2023-09-07T04:19:33;17.40;99.90
13464;DHT22;6804;48.774;9.174;2023-09-07T04:22:00;17.50;99.90
13464;DHT22;6804;48.774;9.174;2023-09-07T04:24:28;17.50;99.90
13464;DHT22;6804;48.774;9.174;2023-09-07T04:27:01;17.50;99.90
13464;DHT22;6804;48.774;9.174;2023-09-07T04:29:30;17.50;99.90
13464;DHT22;6804;48.774;9.174;2023-09-07T04:32:02;17.50;99.90
13464;DHT22;6804;48.774;9.174;2023-09-07T04:34:29;17.50;99.90
13464;DHT22;6804;48.774;9.174;2023-09-07T04:36:58;17.50;99.90
13464;DHT22;6804;48.774;9.174;2023-09-07T04:39:27;17.50;99.90
13464;DHT22;6804;48.774;9.174;2023-09-07T04:41:58;17.40;99.90
13464;DHT22;6804;48.774;9.174;2023-09-07T04:44:32;17.30;99.90
13464;DHT22;6804;48.774;9.174;2023-09-07T04:47:01;17.30;99.90
13464;DHT22;6804;48.774;9.174;2023-09-07T04:49:28;17.30;99.90
13464;DHT22;6804;48.774;9.174;2023-09-07T04:51:56;17.20;99.90
13464;DHT22;6804;48.774;9.174;2023-09-07T04:54:24;17.10;99.90
13464;DHT22;6804;48.774;9.174;2023-09-07T04:56:51;17.10;99.90
13464;DHT22;6804;48.774;9.174;2023-09-07T04:59:19;17.10;99.90
13464;DHT22;6804;48.774;9.174;2023-09-07T05:01:49;17.20;99.90
13464;DHT22;6804;48.774;9.174;2023-09-07T05:04:18;17.20;99.90
13464;DHT22;6804;48.774;9.174;2023-09-07T05:06:46;17.30;99.90
13464;DHT22;6804;48.774;9.174;2023-09-07T05:09:14;17.30;99.90
13464;DHT22;6804;48.774;9.174;2023-09-07T05:11:41;17.20;99.90
13464;DHT22;6804;48.774;9.174;2023-09-07T05:14:11;17.20;99.90
13464;DHT22;6804;48.774;9.174;2023-09-07T05:16:42;17.10;99.90
13464;DHT22;6804;48.774;9.174;2023-09-07T06:31:00;20.80;99.90
13464;DHT22;6804;48.774;9.174;2023-09-07T10:23:23;27.80;99.40
13464;DHT22;6804;48.774;9.174;2023-09-07T13:53:41;28.70;94.90
13464;DHT22;6804;48.774;9.174;2023-09-07T14:02:58;29.70;93.70
13464;DHT22;6804;48.774;9.174;2023-09-07T14:12:11;30.20;92.60
13464;DHT22;6804;48.774;9.174;2023-09-07T14:21:23;29.40;93.60
13464;DHT22;6804;48.774;9.174;2023-09-07T14:24:10;29.70;93.70
13464;DHT22;6804;48.774;9.174;2023-09-07T14:33:09;29.80;92.90
13464;DHT22;6804;48.774;9.174;2023-09-07T15:33:38;29.10;93.80
13464;DHT22;6804;48.774;9.174;2023-09-07T16:12:43;28.60;92.90
13464;DHT22;6804;48.774;9.174;2023-09-07T16:21:41;28.30;92.70
13464;DHT22;6804;48.774;9.174;2023-09-07T16:27:51;28.30;92.70
13464;DHT22;6804;48.774;9.174;2023-09-07T16:30:19;28.30;92.90
13464;DHT22;6804;48.774;9.174;2023-09-07T17:11:00;27.70;91.00
13464;DHT22;6804;48.774;9.174;2023-09-07T17:50:12;26.80;93.20
13464;DHT22;6804;48.774;9.174;2023-09-07T18:06:32;26.70;94.20
13464;DHT22;6804;48.774;9.174;2023-09-07T18:09:19;26.70;94.30
13464;DHT22;6804;48.774;9.174;2023-09-07T18:21:54;26.60;95.00
13464;DHT22;6804;48.774;9.174;2023-09-07T18:28:09;26.50;95.50
13464;DHT22;6804;48.774;9.174;2023-09-07T18:47:03;26.10;95.60
13464;DHT22;6804;48.774;9.174;2023-09-07T19:23:16;25.50;97.40
13464;DHT22;6804;48.774;9.174;2023-09-07T19:29:08;25.40;97.50
13464;DHT22;6804;48.774;9.174;2023-09-07T19:31:55;25.30;97.60
13464;DHT22;6804;48.774;9.174;2023-09-07T19:34:42;25.20;97.80
13464;DHT22;6804;48.774;9.174;2023-09-07T19:43:43;25.00;98.00
13464;DHT22;6804;48.774;9.174;2023-09-07T19:46:30;25.00;98.10
13464;DHT22;6804;48.774;9.174;2023-09-07T20:01:53;24.70;98.30
13464;DHT22;6804;48.774;9.174;2023-09-07T20:11:06;24.60;98.90
13464;DHT22;6804;48.774;9.174;2023-09-07T20:20:38;24.40;99.30
13464;DHT22;6804;48.774;9.174;2023-09-07T20:23:25;24.40;99.90
13464;DHT22;6804;48.774;9.174;2023-09-07T20:46:13;23.80;99.90
13464;DHT22;6804;48.774;9.174;2023-09-07T20:52:12;23.70;99.90
13464;DHT22;6804;48.774;9.174;2023-09-07T21:01:34;23.40;99.90
13464;DHT22;6804;48.774;9.174;2023-09-07T21:13:39;23.10;99.90
13464;DHT22;6804;48.774;9.174;2023-09-07T22:03:02;22.10;99.90
13464;DHT22;6804;48.774;9.174;2023-09-07T22:22:22;21.60;99.90
13464;DHT22;6804;48.774;9.174;2023-09-07T22:31:36;21.60;99.90
13464;DHT22;6804;48.774;9.174;2023-09-07T22:34:04;21.60;99.90
13464;DHT22;6804;48.774;9.174;2023-09-07T22:36:31;21.60;99.90
13464;DHT22;6804;48.774;9.174;2023-09-07T22:39:00;21.50;99.90
13464;DHT22;6804;48.774;9.174;2023-09-07T22:41:30;21.50;99.90
13464;DHT22;6804;48.774;9.174;2023-09-07T22:43:58;21.50;99.90
13464;DHT22;6804;48.774;9.174;2023-09-07T22:46:25;21.40;99.90
13464;DHT22;6804;48.774;9.174;2023-09-07T22:48:55;21.40;99.90
13464;DHT22;6804;48.774;9.174;2023-09-07T22:51:29;21.40;99.90
13464;DHT22;6804;48.774;9.174;2023-09-07T22:54:02;21.30;99.90
13464;DHT22;6804;48.774;9.174;2023-09-07T22:56:29;21.30;99.90
13464;DHT22;6804;48.774;9.174;2023-09-07T22:58:58;21.30;99.90
13464;DHT22;6804;48.774;9.174;2023-09-07T23:01:26;21.20;99.90
13464;DHT22;6804;48.774;9.174;2023-09-07T23:03:56;21.20;99.90
13464;DHT22;6804;48.774;9.174;2023-09-07T23:06:24;21.20;99.90
13464;DHT22;6804;48.774;9.174;2023-09-07T23:08:53;21.10;99.90
13464;DHT22;6804;48.774;9.174;2023-09-07T23:11:22;21.00;99.90
13464;DHT22;6804;48.774;9.174;2023-09-07T23:13:50;21.00;99.90
13464;DHT22;6804;48.774;9.174;2023-09-07T23:16:20;20.90;99.90
13464;DHT22;6804;48.774;9.174;2023-09-07T23:18:51;20.90;99.90
13464;DHT22;6804;48.774;9.174;2023-09-07T23:21:18;20.90;99.90
13464;DHT22;6804;48.774;9.174;2023-09-07T23:23:46;20.90;99.90
13464;DHT22;6804;48.774;9.174;2023-09-07T23:26:14;20.90;99.90
13464;DHT22;6804;48.774;9.174;2023-09-07T23:28:48;20.90;99.90
13464;DHT22;6804;48.774;9.174;2023-09-07T23:31:19;20.90;99.90
13464;DHT22;6804;48.774;9.174;2023-09-07T23:33:47;20.90;99.90
13464;DHT22;6804;48.774;9.174;2023-09-07T23:36:22;20.90;99.90
13464;DHT22;6804;48.774;9.174;2023-09-07T23:38:50;20.90;99.90
13464;DHT22;6804;48.774;9.174;2023-09-07T23:41:20;20.90;99.90
13464;DHT22;6804;48.774;9.174;2023-09-07T23:43:49;20.90;99.90
13464;DHT22;6804;48.774;9.174;2023-09-07T23:46:19;20.80;99.90
13464;DHT22;6804;48.774;9.174;2023-09-07T23:48:50;20.80;99.90
13464;DHT22;6804;48.774;9.174;2023-09-07T23:51:18;20.80;99.90
13464;DHT22;6804;48.774;9.174;2023-09-07T23:53:51;20.80;99.90
13464;DHT22;6804;48.774;9.174;2023-09-07T23:56:19;20.70;99.90
13464;DHT22;6804;48.774;9.174;2023-09-07T23:58:46;20.80;99.90
